Howland, Ohio
Current Conditions -  °F | °C
As of 8:51 AM on Wednesday 22 Oct 2014 (Local Time) from KYNG Reporting Station
Overcast Overcast  
Wind Chill: 39°   Ceiling: 500
Heat Index: 45°   Visibility: 7mi
Dew Point: 43°   Wind: 14mph
Humidity: 93%   Direction: 350°N
Pressure: 30.18"   Gusts: NA
Location:  41.234°N, 80.7496°W
Report Text: KYNG 221251Z 35012KT 7SM OVC005 07/06 A3018 RMK AO2 SLP225 T00720061
Loading
Personal Weather Stations






























Interactive Weather Map New forecast layout! Learn more

10-Day Weather Forecast

Advertisements
Track Severe Weather on mobile